Time;durP1;ratioP1;P1;durP2;ratioP2;P2;SDS_P1;SDS_P2;PMS_P1;PMS_P2;Temp;Humidity;BMP_temperature;BMP_pressure;BME280_temperature;BME280_humidity;BME280_pressure;Samples;Min_cycle;Max_cycle;Signal;HPM_P1;HPM_P2
2021/01/12 00:00:23;;;;;;;13.00;6.20;;;;;;;-1.68;nan;96597.41;4967556;28;20741;-70
2021/01/12 00:02:50;;;;;;;15.07;7.05;;;;;;;;;;4964527;28;20841;-70
2021/01/12 00:05:19;;;;;;;15.90;7.93;;;;;;;-1.67;nan;96586.31;4966455;28;20305;-73
2021/01/12 00:07:46;;;;;;;15.00;6.70;;;;;;;-1.63;nan;96579.47;4972185;28;20198;-70
2021/01/12 00:10:13;;;;;;;12.68;8.00;;;;;;;-1.51;nan;96620.09;4967904;28;20756;-71
2021/01/12 00:12:41;;;;;;;16.00;9.10;;;;;;;-1.45;nan;96538.34;4958533;28;20315;-69
2021/01/12 00:15:08;;;;;;;20.38;8.45;;;;;;;-1.50;nan;96569.03;4962297;28;20305;-71
2021/01/12 00:17:41;;;;;;;19.02;8.55;;;;;;;-1.51;nan;96569.06;4967012;28;20707;-70
2021/01/12 00:20:10;;;;;;;16.42;9.35;;;;;;;-1.50;nan;96550.31;4970677;28;20230;-69
2021/01/12 00:22:37;;;;;;;17.80;7.82;;;;;;;-1.69;nan;96543.84;4971306;28;20202;-68
2021/01/12 00:25:06;;;;;;;19.02;8.68;;;;;;;-1.66;nan;96543.78;4968664;28;20765;-68
2021/01/12 00:27:45;;;;;;;23.00;9.20;;;;;;;-1.69;nan;96539.56;4970085;28;20281;-67
2021/01/12 00:30:12;;;;;;;17.30;7.65;;;;;;;;;;4969414;28;20736;-67
2021/01/12 00:32:39;;;;;;;15.75;7.60;;;;;;;-1.77;nan;96536.31;4968425;28;20281;-69
2021/01/12 00:35:06;;;;;;;18.33;7.95;;;;;;;;;;4963994;28;20880;-67
2021/01/12 00:37:33;;;;;;;15.80;7.88;;;;;;;-1.86;nan;96525.44;4970052;28;20223;-67
2021/01/12 00:40:00;;;;;;;21.85;9.27;;;;;;;-1.86;nan;96530.53;4964416;28;20704;-67
2021/01/12 00:42:27;;;;;;;19.67;8.73;;;;;;;-1.92;nan;96521.25;4972280;28;20290;-69
2021/01/12 00:44:57;;;;;;;24.73;10.32;;;;;;;-1.83;nan;96515.16;4967159;28;20593;-70
2021/01/12 00:47:25;;;;;;;21.65;9.45;;;;;;;-1.78;nan;96528.69;4965901;28;20566;-67
2021/01/12 00:49:52;;;;;;;20.65;8.50;;;;;;;;;;4968985;28;20230;-67
2021/01/12 00:52:20;;;;;;;16.90;9.23;;;;;;;-1.49;nan;96587.75;4971388;28;20588;-69
2021/01/12 00:54:46;;;;;;;20.90;8.85;;;;;;;;;;4971349;28;20235;-67
2021/01/12 00:57:13;;;;;;;23.48;9.10;;;;;;;-1.48;nan;96525.66;4967956;28;20286;-69
2021/01/12 00:59:45;;;;;;;24.55;10.25;;;;;;;-1.44;nan;96524.72;4967847;28;20309;-69
2021/01/12 01:02:13;;;;;;;16.92;8.40;;;;;;;-1.38;nan;96534.81;4970931;28;20296;-67
2021/01/12 01:04:40;;;;;;;23.25;9.63;;;;;;;;;;4954801;28;20711;-68
2021/01/12 01:07:07;;;;;;;22.00;9.63;;;;;;;-1.49;nan;96526.53;4956275;28;20203;-69
2021/01/12 01:09:35;;;;;;;28.55;11.52;;;;;;;-1.43;nan;96522.16;4957991;28;20706;-75
2021/01/12 01:12:02;;;;;;;19.65;9.32;;;;;;;-1.27;nan;96517.63;4959387;28;20624;-70
2021/01/12 01:14:29;;;;;;;25.50;10.20;;;;;;;-1.19;nan;96520.88;4967522;28;20248;-69
2021/01/12 01:16:55;;;;;;;22.15;10.55;;;;;;;;;;4958866;28;20237;-69
2021/01/12 01:19:23;;;;;;;16.83;8.32;;;;;;;-1.24;nan;96507.34;4955630;28;20232;-69
2021/01/12 01:21:50;;;;;;;21.02;10.27;;;;;;;-1.20;nan;96534.53;4961898;28;20287;-68
2021/01/12 01:24:17;;;;;;;18.80;8.10;;;;;;;-1.24;nan;96523.53;4967072;28;20827;-69
2021/01/12 01:26:46;;;;;;;18.73;9.25;;;;;;;-1.28;nan;96532.09;4969369;28;20534;-67
2021/01/12 01:29:13;;;;;;;18.90;8.32;;;;;;;-1.34;nan;96567.09;4966162;28;20301;-68
2021/01/12 01:31:42;;;;;;;22.83;10.25;;;;;;;-1.23;nan;96535.41;4956157;28;20682;-71
2021/01/12 01:34:09;;;;;;;28.42;10.65;;;;;;;-1.19;nan;96537.03;4957241;28;20687;-69
2021/01/12 01:36:37;;;;;;;25.98;10.40;;;;;;;-1.22;nan;96541.34;4958140;28;20201;-70
2021/01/12 01:39:04;;;;;;;20.27;10.00;;;;;;;-1.32;nan;96504.09;4965807;28;20323;-69
2021/01/12 01:41:31;;;;;;;20.88;9.82;;;;;;;;;;4968228;28;20200;-69
2021/01/12 01:43:58;;;;;;;28.25;12.20;;;;;;;-1.32;nan;96530.44;4971561;28;20248;-68
2021/01/12 01:46:25;;;;;;;18.77;9.40;;;;;;;-1.24;nan;96578.81;4966006;28;20666;-70
2021/01/12 01:48:52;;;;;;;20.52;8.60;;;;;;;-1.27;nan;96533.78;4970591;28;20602;-69
2021/01/12 01:51:19;;;;;;;20.10;9.35;;;;;;;-1.25;nan;96526.91;4969213;28;20682;-71
2021/01/12 01:53:47;;;;;;;24.05;8.98;;;;;;;-1.21;nan;96513.25;4972558;28;20627;-72
2021/01/12 01:56:16;;;;;;;18.77;9.32;;;;;;;;;;4969050;28;20197;-70
2021/01/12 01:58:43;;;;;;;14.57;6.95;;;;;;;-1.28;nan;96496.38;4970809;28;20328;-70
2021/01/12 02:01:10;;;;;;;21.08;10.52;;;;;;;-1.38;nan;96489.75;4970176;28;20234;-71
2021/01/12 02:03:45;;;;;;;19.48;8.85;;;;;;;-1.51;nan;96478.06;4968424;28;20230;-70
2021/01/12 02:06:18;;;;;;;19.55;8.80;;;;;;;-1.58;nan;96490.94;4968615;28;20661;-71
2021/01/12 02:08:55;;;;;;;21.20;8.70;;;;;;;-1.61;nan;96455.28;4967698;28;20316;-68
2021/01/12 02:11:23;;;;;;;17.73;7.28;;;;;;;;;;4954501;28;20209;-69
2021/01/12 02:13:54;;;;;;;20.98;8.98;;;;;;;;;;4961419;28;20237;-75
2021/01/12 02:16:22;;;;;;;20.73;8.95;;;;;;;-1.57;nan;96437.34;4965723;28;20777;-70
2021/01/12 02:18:49;;;;;;;16.05;7.95;;;;;;;;;;4954410;28;20219;-69
2021/01/12 02:21:17;;;;;;;21.75;9.00;;;;;;;-1.59;nan;96428.03;4956723;28;20234;-69
2021/01/12 02:23:50;;;;;;;15.82;7.10;;;;;;;;;;4959062;28;20282;-69
2021/01/12 02:26:17;;;;;;;21.45;7.65;;;;;;;-1.61;nan;96429.78;4959174;28;20318;-68
2021/01/12 02:28:43;;;;;;;20.48;7.70;;;;;;;-1.60;nan;96422.13;4969855;28;20330;-68
2021/01/12 02:31:10;;;;;;;13.55;7.03;;;;;;;;;;4973610;28;20612;-68
2021/01/12 02:33:38;;;;;;;17.40;8.32;;;;;;;;;;4972193;28;20266;-70
2021/01/12 02:36:07;;;;;;;16.60;7.30;;;;;;;-1.58;nan;96420.38;4975861;28;20279;-69
2021/01/12 02:38:35;;;;;;;10.50;5.20;;;;;;;-1.53;nan;96417.72;4971023;28;20526;-69
2021/01/12 02:41:09;;;;;;;21.02;8.15;;;;;;;;;;4973708;28;20224;-69
2021/01/12 02:43:36;;;;;;;18.30;7.78;;;;;;;;;;4970726;28;20229;-68
2021/01/12 02:46:03;;;;;;;20.88;8.48;;;;;;;-1.44;nan;96386.94;4974692;28;20210;-67
2021/01/12 02:48:30;;;;;;;12.15;6.50;;;;;;;-1.30;nan;96400.28;4971640;28;20204;-67
2021/01/12 02:50:56;;;;;;;15.63;7.40;;;;;;;-1.21;nan;96400.09;4967854;28;20798;-68
2021/01/12 02:53:23;;;;;;;11.93;5.28;;;;;;;;;;4969022;28;20725;-68
2021/01/12 02:55:50;;;;;;;8.75;4.75;;;;;;;-1.20;nan;96381.38;4963005;28;20259;-71
2021/01/12 02:58:18;;;;;;;13.20;4.72;;;;;;;-1.09;nan;96379.44;4974328;28;20391;-69
2021/01/12 03:00:45;;;;;;;10.52;5.00;;;;;;;-1.10;nan;96342.84;4962860;28;20286;-67
2021/01/12 03:03:12;;;;;;;13.07;5.43;;;;;;;-0.93;nan;96375.69;4970551;28;20287;-70
2021/01/12 03:05:39;;;;;;;17.08;8.20;;;;;;;;;;4968741;28;20226;-69
2021/01/12 03:08:07;;;;;;;9.32;4.45;;;;;;;-0.77;nan;96377.03;4971880;28;20700;-69
2021/01/12 03:10:36;;;;;;;14.02;5.80;;;;;;;-0.75;nan;96314.00;4969072;28;20281;-69
2021/01/12 03:13:09;;;;;;;11.20;5.60;;;;;;;-0.68;nan;96417.72;4970102;28;20241;-70
2021/01/12 03:15:38;;;;;;;9.63;5.50;;;;;;;-0.55;nan;96357.78;4971393;28;20618;-68
2021/01/12 03:18:05;;;;;;;12.80;5.38;;;;;;;;;;4972863;28;20200;-72
2021/01/12 03:20:32;;;;;;;10.95;4.55;;;;;;;-0.48;nan;96346.53;4968668;28;20318;-70
2021/01/12 03:22:58;;;;;;;11.60;4.70;;;;;;;-0.44;nan;96355.84;4966597;28;20568;-69
2021/01/12 03:25:25;;;;;;;6.78;3.40;;;;;;;-0.42;nan;96338.75;4971206;28;20766;-69
2021/01/12 03:27:52;;;;;;;10.40;4.93;;;;;;;;;;4971622;28;20242;-71
2021/01/12 03:30:20;;;;;;;11.82;4.28;;;;;;;-0.27;nan;96338.38;4958145;28;20852;-70
2021/01/12 03:32:48;;;;;;;11.32;4.25;;;;;;;-0.29;nan;96361.44;4959023;28;20202;-70
2021/01/12 03:35:15;;;;;;;14.43;3.53;;;;;;;-0.17;nan;96329.63;4956933;28;20324;-69
2021/01/12 03:37:41;;;;;;;9.43;4.32;;;;;;;-0.08;nan;96285.03;4963236;28;20228;-70
2021/01/12 03:40:09;;;;;;;8.05;3.70;;;;;;;-0.04;nan;96362.50;4973294;28;20602;-70
2021/01/12 03:42:36;;;;;;;11.15;4.60;;;;;;;-0.07;nan;96327.63;4972617;28;20593;-70
2021/01/12 03:45:04;;;;;;;5.65;2.65;;;;;;;-0.01;nan;96322.34;4970748;28;20742;-70
2021/01/12 03:47:31;;;;;;;8.07;4.13;;;;;;;-0.05;nan;96314.78;4969166;28;20259;-70
2021/01/12 03:49:59;;;;;;;5.60;3.05;;;;;;;0.00;nan;96318.09;4970006;28;20312;-69
2021/01/12 03:52:26;;;;;;;4.63;2.65;;;;;;;0.06;nan;96313.63;4966124;28;20282;-69
2021/01/12 03:54:53;;;;;;;6.93;3.53;;;;;;;0.11;nan;96311.81;4968481;28;20649;-70
2021/01/12 03:57:20;;;;;;;6.47;3.88;;;;;;;;;;4964147;28;20803;-69
2021/01/12 03:59:46;;;;;;;8.15;4.03;;;;;;;0.18;nan;96300.53;4967816;28;20687;-70
2021/01/12 04:02:13;;;;;;;8.27;3.95;;;;;;;0.16;nan;96293.78;4972223;28;20237;-69
2021/01/12 04:04:40;;;;;;;5.00;2.78;;;;;;;0.19;nan;96306.47;4957988;28;20317;-69
2021/01/12 04:07:08;;;;;;;8.50;3.97;;;;;;;21.40;100.00;46516.91;4956457;28;20881;-68
2021/01/12 04:09:35;;;;;;;5.07;2.88;;;;;;;0.26;nan;96285.81;4955991;28;20311;-68
2021/01/12 04:12:01;;;;;;;6.55;3.10;;;;;;;;;;4961109;28;20229;-70
2021/01/12 04:14:28;;;;;;;6.93;3.58;;;;;;;;;;4969859;28;20619;-68
2021/01/12 04:16:55;;;;;;;6.95;3.35;;;;;;;0.34;nan;96278.75;4970441;28;20194;-68
2021/01/12 04:19:22;;;;;;;4.90;2.70;;;;;;;;;;4966762;28;20307;-68
2021/01/12 04:21:49;;;;;;;5.63;3.47;;;;;;;0.37;nan;96232.59;4968834;28;20585;-75
2021/01/12 04:24:17;;;;;;;7.82;4.25;;;;;;;0.42;nan;96261.47;4968823;28;20227;-68
2021/01/12 04:26:43;;;;;;;7.65;2.72;;;;;;;0.42;nan;96271.72;4972297;28;20240;-69
2021/01/12 04:29:10;;;;;;;6.57;4.35;;;;;;;0.44;nan;96269.13;4969773;28;20703;-69
2021/01/12 04:31:37;;;;;;;8.48;3.17;;;;;;;0.41;nan;96223.97;4971198;28;20289;-67
2021/01/12 04:34:04;;;;;;;3.70;2.20;;;;;;;;;;4966840;28;20229;-68
2021/01/12 04:36:31;;;;;;;4.00;2.70;;;;;;;0.47;nan;96264.72;4970885;28;20238;-69
2021/01/12 04:38:59;;;;;;;11.68;4.28;;;;;;;0.42;nan;96264.03;4974458;28;20801;-70
2021/01/12 04:41:27;;;;;;;6.88;2.78;;;;;;;0.46;nan;96247.69;4973206;28;20590;-69
2021/01/12 04:43:54;;;;;;;5.97;2.55;;;;;;;0.53;nan;96253.50;4972886;28;20612;-68
2021/01/12 04:46:21;;;;;;;5.40;2.97;;;;;;;0.54;nan;96250.03;4964976;28;20296;-67
2021/01/12 04:48:49;;;;;;;6.57;3.63;;;;;;;0.57;nan;96255.91;4968607;28;20680;-69
2021/01/12 04:51:16;;;;;;;6.38;2.85;;;;;;;0.59;nan;96253.31;4972296;28;20682;-68
2021/01/12 04:53:46;;;;;;;7.30;3.72;;;;;;;;;;4971524;28;20247;-68
2021/01/12 04:56:14;;;;;;;5.63;2.90;;;;;;;0.66;nan;96286.34;4970633;28;20575;-68
2021/01/12 04:58:46;;;;;;;6.05;3.10;;;;;;;0.70;nan;96231.63;4966082;28;20221;-70
2021/01/12 05:01:13;;;;;;;4.53;3.22;;;;;;;;;;4972459;28;20304;-70
2021/01/12 05:03:44;;;;;;;8.18;3.42;;;;;;;0.69;nan;96255.56;4955945;28;20257;-70
2021/01/12 05:06:11;;;;;;;7.30;3.38;;;;;;;0.66;nan;96222.34;4956359;28;20701;-70
2021/01/12 05:08:46;;;;;;;6.03;2.90;;;;;;;0.76;nan;96210.13;4956190;28;20709;-69
2021/01/12 05:11:13;;;;;;;4.50;3.03;;;;;;;0.79;nan;96281.72;4955668;28;20677;-71
2021/01/12 05:13:43;;;;;;;7.97;3.35;;;;;;;0.83;nan;96202.19;4956574;28;20724;-69
2021/01/12 05:16:11;;;;;;;10.90;4.35;;;;;;;0.84;nan;96173.16;4959824;28;20644;-70
2021/01/12 05:18:40;;;;;;;4.63;2.22;;;;;;;0.96;nan;96198.38;4967889;28;20556;-67
2021/01/12 05:21:12;;;;;;;6.40;3.55;;;;;;;1.02;nan;96208.44;4965091;28;20577;-68
2021/01/12 05:24:01;;;;;;;5.07;2.80;;;;;;;1.09;nan;96198.81;4970704;28;20607;-73
2021/01/12 05:26:32;;;;;;;8.73;2.00;;;;;;;1.13;nan;96164.53;4970216;28;20684;-67
2021/01/12 05:29:01;;;;;;;5.43;2.38;;;;;;;1.13;nan;96190.16;4971128;28;20856;-71
2021/01/12 05:31:37;;;;;;;6.13;2.60;;;;;;;1.08;nan;96126.25;4972846;28;20520;-70
2021/01/12 05:34:06;;;;;;;4.80;2.72;;;;;;;1.14;nan;96146.56;4968661;28;20584;-67
2021/01/12 05:36:35;;;;;;;4.95;2.17;;;;;;;1.19;nan;96175.41;4969889;28;20727;-69
2021/01/12 05:39:03;;;;;;;3.13;2.05;;;;;;;1.26;nan;96125.63;4970367;28;20548;-71
2021/01/12 05:41:30;;;;;;;4.13;2.33;;;;;;;1.28;nan;96170.00;4970334;28;20225;-70
2021/01/12 05:43:58;;;;;;;2.55;2.08;;;;;;;1.33;nan;96183.50;4969954;28;20263;-70
2021/01/12 05:46:30;;;;;;;3.03;2.25;;;;;;;1.30;nan;96167.38;4970423;28;20534;-69
2021/01/12 05:48:59;;;;;;;4.32;2.38;;;;;;;1.32;nan;96135.69;4969161;28;20739;-69
2021/01/12 05:51:28;;;;;;;4.28;2.15;;;;;;;1.32;nan;96169.00;4970100;28;20705;-69
2021/01/12 05:54:05;;;;;;;6.50;1.90;;;;;;;;;;4967910;28;20759;-67
2021/01/12 05:56:32;;;;;;;2.05;1.58;;;;;;;1.33;nan;96182.66;4966787;28;20193;-69
2021/01/12 05:59:00;;;;;;;3.42;1.90;;;;;;;1.34;nan;96153.59;4971723;28;20341;-68
2021/01/12 06:01:47;;;;;;;4.53;1.75;;;;;;;1.35;nan;96148.41;4973268;28;20732;-69
2021/01/12 06:04:15;;;;;;;2.72;1.75;;;;;;;1.35;nan;96150.13;4971503;28;20670;-69
2021/01/12 06:06:43;;;;;;;8.40;2.83;;;;;;;1.37;nan;96132.97;4974830;28;20589;-69
2021/01/12 06:09:11;;;;;;;8.15;2.45;;;;;;;1.31;nan;96117.78;4974165;28;20844;-69
2021/01/12 06:11:40;;;;;;;2.25;1.40;;;;;;;1.34;nan;96148.47;4974316;28;20693;-69
2021/01/12 06:14:09;;;;;;;4.40;2.30;;;;;;;1.31;nan;96139.13;4971585;28;20232;-67
2021/01/12 06:16:38;;;;;;;4.47;1.85;;;;;;;1.24;nan;96153.03;4970981;28;20225;-70
2021/01/12 06:19:13;;;;;;;5.38;2.85;;;;;;;;;;4972848;28;20230;-70
2021/01/12 06:22:05;;;;;;;3.35;1.88;;;;;;;1.14;nan;96141.44;4960285;28;20713;-67
2021/01/12 06:24:40;;;;;;;7.05;2.95;;;;;;;1.06;nan;96143.41;4971854;28;20225;-68
2021/01/12 06:27:10;;;;;;;3.95;2.45;;;;;;;1.09;nan;96147.56;4973543;28;20593;-69
2021/01/12 06:29:38;;;;;;;5.30;2.25;;;;;;;1.10;nan;96128.78;4969027;28;20842;-70
2021/01/12 06:32:05;;;;;;;4.97;3.03;;;;;;;;;;4974492;28;20607;-70
2021/01/12 06:34:41;;;;;;;5.18;2.33;;;;;;;1.03;nan;96101.69;4968641;28;20559;-69
2021/01/12 06:37:09;;;;;;;6.15;2.90;;;;;;;;;;4973194;28;20591;-70
2021/01/12 06:39:40;;;;;;;7.57;2.90;;;;;;;0.97;nan;96107.81;4968270;28;20249;-70
2021/01/12 06:42:09;;;;;;;5.22;2.70;;;;;;;0.95;nan;96103.63;4970029;28;20685;-70
2021/01/12 06:44:37;;;;;;;5.10;2.88;;;;;;;0.96;nan;96095.91;4973346;28;20337;-71
2021/01/12 06:47:06;;;;;;;7.45;3.13;;;;;;;0.96;nan;96095.91;4969865;28;20190;-69
2021/01/12 06:49:33;;;;;;;3.97;3.58;;;;;;;0.98;nan;96113.81;4972865;28;20635;-71
2021/01/12 06:52:03;;;;;;;6.25;3.05;;;;;;;1.02;nan;96085.47;4970074;28;20759;-70
2021/01/12 06:54:34;;;;;;;5.95;2.92;;;;;;;1.04;nan;96088.81;4969571;28;20291;-70
2021/01/12 06:57:04;;;;;;;6.93;3.42;;;;;;;1.07;nan;96093.84;4971114;28;20575;-74
2021/01/12 06:59:39;;;;;;;7.25;3.13;;;;;;;1.06;nan;96081.94;4969756;28;20594;-70
2021/01/12 07:02:09;;;;;;;6.80;2.55;;;;;;;;;;4974008;28;20534;-68
2021/01/12 07:04:36;;;;;;;5.05;3.45;;;;;;;;;;4971513;28;20221;-69
2021/01/12 07:07:03;;;;;;;5.47;2.05;;;;;;;;;;4974121;28;20600;-68
2021/01/12 07:09:30;;;;;;;3.67;2.10;;;;;;;1.17;nan;96073.84;4972311;28;20300;-70
2021/01/12 07:12:08;;;;;;;3.08;2.28;;;;;;;1.21;nan;96076.28;4968941;28;20285;-69
2021/01/12 07:14:47;;;;;;;3.97;1.70;;;;;;;;;;4971443;28;20287;-68
2021/01/12 07:17:14;;;;;;;2.22;1.50;;;;;;;1.36;nan;96091.13;4970288;28;20612;-68
2021/01/12 07:19:41;;;;;;;2.80;1.75;;;;;;;;;;4973701;28;20254;-69
2021/01/12 07:22:16;;;;;;;3.00;1.20;;;;;;;1.48;nan;96065.06;4971424;28;20588;-69
2021/01/12 07:24:43;;;;;;;3.22;2.03;;;;;;;;;;4965984;28;20675;-68
2021/01/12 07:27:14;;;;;;;3.35;1.90;;;;;;;1.48;nan;96071.91;4972773;28;20226;-68
2021/01/12 07:29:48;;;;;;;1.20;0.98;;;;;;;1.60;nan;96059.50;4973178;28;20753;-69
2021/01/12 07:32:26;;;;;;;1.98;1.23;;;;;;;1.64;nan;96045.66;4969975;28;20285;-74
2021/01/12 07:34:56;;;;;;;3.05;1.45;;;;;;;1.66;nan;96008.00;4956890;28;20226;-69
2021/01/12 07:37:31;;;;;;;1.65;1.10;;;;;;;;;;4961992;28;20233;-69
2021/01/12 07:39:59;;;;;;;2.85;0.90;;;;;;;1.73;nan;96101.75;4965973;28;20621;-69
2021/01/12 07:42:27;;;;;;;1.33;0.82;;;;;;;21.43;100.00;147086.66;4974078;28;20294;-68
2021/01/12 07:44:54;;;;;;;1.60;0.63;;;;;;;1.70;nan;96065.94;4969634;28;20833;-69
2021/01/12 07:47:21;;;;;;;9.93;2.53;;;;;;;1.79;nan;96050.25;4960592;28;20885;-70
2021/01/12 07:49:50;;;;;;;1.85;1.00;;;;;;;1.83;nan;96056.09;4956675;28;20548;-70
2021/01/12 07:52:20;;;;;;;1.75;0.80;;;;;;;;;;4958647;28;20564;-69
2021/01/12 07:54:48;;;;;;;1.73;0.80;;;;;;;1.88;nan;96038.78;4957354;28;20849;-69
2021/01/12 07:57:16;;;;;;;1.98;0.80;;;;;;;1.85;nan;96039.75;4964744;28;20632;-70
2021/01/12 07:59:43;;;;;;;1.30;0.82;;;;;;;;;;4968396;28;20661;-71
2021/01/12 08:02:09;;;;;;;1.45;0.85;;;;;;;;;;4971324;28;20664;-70
2021/01/12 08:04:39;;;;;;;1.95;0.90;;;;;;;1.88;nan;96029.38;4960728;28;20345;-70
2021/01/12 08:07:07;;;;;;;0.93;0.60;;;;;;;1.87;nan;96032.84;4974923;28;20534;-70
2021/01/12 08:09:36;;;;;;;0.80;0.60;;;;;;;1.88;nan;96044.78;4969213;28;20230;-70
2021/01/12 08:12:06;;;;;;;0.60;0.55;;;;;;;1.91;nan;96034.38;4965158;28;20594;-70
2021/01/12 08:14:33;;;;;;;1.42;0.80;;;;;;;1.92;nan;96036.06;4969420;28;20684;-71
2021/01/12 08:17:05;;;;;;;1.38;0.88;;;;;;;1.83;nan;96026.16;4970144;28;20245;-69
2021/01/12 08:19:32;;;;;;;1.27;0.60;;;;;;;1.90;nan;96032.72;4970098;28;20225;-70
2021/01/12 08:22:00;;;;;;;1.75;1.10;;;;;;;1.90;nan;96068.63;4970560;28;20596;-70
2021/01/12 08:24:27;;;;;;;1.15;0.85;;;;;;;1.93;nan;96029.22;4968825;28;20518;-70
2021/01/12 08:26:54;;;;;;;0.80;0.60;;;;;;;1.91;nan;96013.88;4970578;28;20908;-69
2021/01/12 08:29:23;;;;;;;0.70;0.50;;;;;;;;;;4967091;28;20692;-71
2021/01/12 08:31:52;;;;;;;3.40;0.70;;;;;;;;;;4961237;28;20198;-69
2021/01/12 08:34:24;;;;;;;1.00;0.70;;;;;;;1.75;nan;95997.38;4968248;28;20313;-70
2021/01/12 08:36:51;;;;;;;1.45;0.63;;;;;;;1.90;nan;96012.19;4955571;28;20597;-71
2021/01/12 08:39:24;;;;;;;1.48;0.93;;;;;;;;;;4965632;28;20283;-70
2021/01/12 08:41:53;;;;;;;1.00;0.70;;;;;;;1.87;nan;96017.47;4963442;28;20201;-72
2021/01/12 08:44:25;;;;;;;1.30;0.90;;;;;;;1.85;nan;96029.47;4961479;28;20322;-72
2021/01/12 08:46:53;;;;;;;1.27;0.70;;;;;;;1.85;nan;96019.22;4964796;28;20620;-70
2021/01/12 08:49:30;;;;;;;1.60;0.68;;;;;;;1.84;nan;96012.41;4957108;28;20681;-70
2021/01/12 08:51:58;;;;;;;1.60;0.90;;;;;;;1.82;nan;96014.22;4966790;28;20292;-70
2021/01/12 08:54:25;;;;;;;1.23;0.75;;;;;;;;;;4970222;28;20225;-71
2021/01/12 08:56:56;;;;;;;1.73;0.73;;;;;;;1.82;nan;96018.50;4969263;28;20224;-71
2021/01/12 08:59:29;;;;;;;0.50;0.40;;;;;;;1.81;nan;96016.84;4966802;28;20292;-70
2021/01/12 09:01:57;;;;;;;6.15;3.75;;;;;;;1.78;nan;96007.50;4963014;28;20295;-70
2021/01/12 09:04:27;;;;;;;9.45;4.93;;;;;;;;;;4976559;28;20300;-70
2021/01/12 09:07:01;;;;;;;8.15;5.00;;;;;;;;;;4955819;28;20202;-71
2021/01/12 09:09:29;;;;;;;2.17;1.65;;;;;;;1.73;nan;96014.56;4957546;28;20717;-71
2021/01/12 09:12:05;;;;;;;2.15;2.00;;;;;;;1.73;nan;96004.31;4968205;28;20292;-71
2021/01/12 09:14:46;;;;;;;0.85;0.82;;;;;;;1.73;nan;95957.28;4968813;28;20745;-70
2021/01/12 09:17:16;;;;;;;0.82;0.70;;;;;;;1.73;nan;96003.47;4966631;28;20289;-69
2021/01/12 09:19:49;;;;;;;1.13;0.73;;;;;;;1.72;nan;96001.78;4965785;28;20622;-70
2021/01/12 09:22:17;;;;;;;1.50;1.20;;;;;;;;;;4969407;28;20282;-70
2021/01/12 09:24:49;;;;;;;2.47;1.15;;;;;;;1.72;nan;96006.91;4968843;28;20646;-70
2021/01/12 09:27:20;;;;;;;3.78;2.03;;;;;;;1.70;nan;95996.72;4972031;28;20717;-70
2021/01/12 09:29:48;;;;;;;16.00;5.03;;;;;;;1.68;nan;95995.94;4963971;28;20214;-70
2021/01/12 09:32:28;;;;;;;1.58;0.70;;;;;;;1.64;nan;95999.50;4967159;28;20293;-70
2021/01/12 09:34:56;;;;;;;4.13;1.88;;;;;;;1.60;nan;96008.22;4963587;28;20272;-70
2021/01/12 09:37:23;;;;;;;12.73;5.05;;;;;;;1.54;nan;95977.66;4956812;28;20531;-70
2021/01/12 09:39:53;;;;;;;1.73;0.90;;;;;;;;;;4956356;28;20838;-70
2021/01/12 09:42:25;;;;;;;1.25;0.80;;;;;;;1.43;nan;96015.69;4966468;28;20689;-71
2021/01/12 09:45:09;;;;;;;1.38;1.05;;;;;;;1.45;nan;95972.88;4961376;28;20697;-67
2021/01/12 09:47:37;;;;;;;1.63;0.70;;;;;;;1.42;nan;96008.06;4966048;28;20680;-71
2021/01/12 09:50:05;;;;;;;0.60;0.52;;;;;;;1.42;nan;96003.75;4969598;28;20288;-68
2021/01/12 09:52:31;;;;;;;0.82;0.57;;;;;;;1.40;nan;96005.53;4965537;28;20200;-68
2021/01/12 09:54:58;;;;;;;1.05;0.50;;;;;;;1.37;nan;96004.81;4971199;28;20760;-68
2021/01/12 09:57:25;;;;;;;1.27;0.65;;;;;;;1.35;nan;96012.56;4970664;28;20321;-68
2021/01/12 09:59:52;;;;;;;0.93;0.60;;;;;;;1.36;nan;95998.88;4968740;28;20315;-68
2021/01/12 10:02:20;;;;;;;1.38;0.60;;;;;;;1.36;nan;96008.25;4967943;28;20242;-67
2021/01/12 10:04:47;;;;;;;1.00;0.60;;;;;;;1.33;nan;96004.06;4967469;28;20760;-69
2021/01/12 10:07:13;;;;;;;0.80;0.70;;;;;;;1.33;nan;95982.75;4967018;28;20590;-69
2021/01/12 10:09:40;;;;;;;0.65;0.60;;;;;;;1.33;nan;95957.13;4975586;28;20791;-68
2021/01/12 10:12:07;;;;;;;2.85;0.70;;;;;;;;;;4969786;28;20752;-68
2021/01/12 10:14:34;;;;;;;1.08;0.70;;;;;;;;;;4970504;28;20213;-68
2021/01/12 10:17:00;;;;;;;22.55;4.57;;;;;;;1.31;nan;95964.88;4971036;28;20233;-70
2021/01/12 10:19:28;;;;;;;4.20;1.13;;;;;;;;;;4969060;28;20217;-70
2021/01/12 10:21:55;;;;;;;1.85;1.38;;;;;;;1.29;nan;95929.94;4971365;28;20831;-70
2021/01/12 10:24:22;;;;;;;1.75;1.20;;;;;;;;;;4970186;28;20221;-70
2021/01/12 10:26:53;;;;;;;1.50;0.93;;;;;;;1.31;nan;95954.63;4969372;28;20585;-70
2021/01/12 10:29:20;;;;;;;1.30;0.80;;;;;;;;;;4956616;28;20241;-70
2021/01/12 10:31:49;;;;;;;1.60;0.90;;;;;;;1.38;nan;95958.63;4955360;28;20653;-71
2021/01/12 10:34:16;;;;;;;0.85;0.60;;;;;;;1.36;nan;95957.00;4962087;28;20244;-70
2021/01/12 10:36:49;;;;;;;3.05;0.80;;;;;;;1.39;nan;95956.91;4957254;28;20628;-69
2021/01/12 10:39:16;;;;;;;0.80;0.68;;;;;;;1.41;nan;95908.97;4968367;28;20218;-72
2021/01/12 10:41:42;;;;;;;0.88;0.50;;;;;;;1.43;nan;95958.44;4970685;28;20221;-70
2021/01/12 10:44:09;;;;;;;0.68;0.57;;;;;;;;;;4973630;28;20218;-70
2021/01/12 10:46:36;;;;;;;0.68;0.47;;;;;;;1.47;nan;95960.84;4972747;28;20241;-71
2021/01/12 10:49:04;;;;;;;0.60;0.50;;;;;;;1.47;nan;95981.34;4974493;28;20587;-70
2021/01/12 10:51:31;;;;;;;0.60;0.47;;;;;;;1.50;nan;95940.25;4974176;28;20331;-70
2021/01/12 10:53:59;;;;;;;0.70;0.60;;;;;;;1.50;nan;95934.25;4969224;28;20226;-70
2021/01/12 10:56:25;;;;;;;0.57;0.40;;;;;;;;;;4972383;28;20622;-71
2021/01/12 10:58:52;;;;;;;0.60;0.60;;;;;;;1.50;nan;95924.84;4964570;28;20704;-71
2021/01/12 11:01:21;;;;;;;0.63;0.50;;;;;;;;;;4969481;28;20622;-71
2021/01/12 11:03:48;;;;;;;0.60;0.40;;;;;;;1.54;nan;95930.69;4968053;28;20286;-70
2021/01/12 11:06:17;;;;;;;0.93;0.60;;;;;;;1.50;nan;95906.91;4969243;28;20676;-70
2021/01/12 11:08:44;;;;;;;0.70;0.50;;;;;;;1.51;nan;95911.13;4957932;28;20206;-71
2021/01/12 11:11:12;;;;;;;1.10;0.80;;;;;;;1.55;nan;95917.81;4958016;28;20198;-69
2021/01/12 11:13:39;;;;;;;0.80;0.52;;;;;;;;;;4957938;28;20210;-73
2021/01/12 11:16:06;;;;;;;2.10;0.82;;;;;;;;;;4972820;28;20327;-70
2021/01/12 11:18:33;;;;;;;0.60;0.57;;;;;;;1.62;nan;95898.72;4970312;28;20639;-70
2021/01/12 11:21:02;;;;;;;0.73;0.50;;;;;;;;;;4967043;28;20324;-70
2021/01/12 11:23:28;;;;;;;0.73;0.60;;;;;;;1.65;nan;95892.66;4975143;28;20207;-71
2021/01/12 11:25:55;;;;;;;2.70;0.65;;;;;;;;;;4972605;28;20309;-71
2021/01/12 11:28:23;;;;;;;0.60;0.52;;;;;;;1.70;nan;95890.75;4967151;28;20764;-71
2021/01/12 11:30:50;;;;;;;1.77;0.70;;;;;;;1.71;nan;95895.81;4968805;28;20306;-71
2021/01/12 11:33:17;;;;;;;0.80;0.60;;;;;;;1.72;nan;95889.81;4967280;28;20218;-71
2021/01/12 11:35:47;;;;;;;0.50;0.40;;;;;;;;;;4966651;28;20789;-70
2021/01/12 11:38:33;;;;;;;3.00;0.60;;;;;;;1.78;nan;95878.47;4970737;28;20500;-69
2021/01/12 11:41:00;;;;;;;0.65;0.50;;;;;;;1.81;nan;95874.03;4969843;28;20364;-73
2021/01/12 11:43:29;;;;;;;0.70;0.60;;;;;;;1.86;nan;95877.25;4972273;28;20194;-71
2021/01/12 11:45:56;;;;;;;1.00;0.63;;;;;;;1.86;nan;95856.72;4973809;28;20618;-72
2021/01/12 11:48:23;;;;;;;0.50;0.40;;;;;;;;;;4957294;28;20203;-72
2021/01/12 11:50:50;;;;;;;1.23;0.70;;;;;;;1.90;nan;95868.53;4955920;28;20329;-72
2021/01/12 11:53:17;;;;;;;1.52;0.70;;;;;;;1.90;nan;95852.28;4956365;28;20195;-71
2021/01/12 11:55:44;;;;;;;5.68;2.00;;;;;;;1.91;nan;95849.69;4959517;28;20876;-72
2021/01/12 11:58:10;;;;;;;1.13;0.75;;;;;;;;;;4961092;28;20198;-73
2021/01/12 12:00:38;;;;;;;10.57;2.85;;;;;;;;;;4968628;28;20223;-72
2021/01/12 12:03:05;;;;;;;8.23;3.65;;;;;;;1.84;nan;95868.78;4969880;28;20225;-72
2021/01/12 12:05:32;;;;;;;9.80;2.80;;;;;;;1.89;nan;95843.78;4968017;28;20280;-72
2021/01/12 12:07:59;;;;;;;5.70;2.05;;;;;;;1.92;nan;95820.56;4965629;28;20578;-71
2021/01/12 12:10:26;;;;;;;28.00;8.73;;;;;;;1.95;nan;95830.72;4971735;28;20306;-72
2021/01/12 12:12:53;;;;;;;13.57;4.38;;;;;;;1.99;nan;95852.75;4968215;28;20208;-73
2021/01/12 12:15:22;;;;;;;3.13;1.17;;;;;;;1.99;nan;95837.38;4962809;28;20695;-73
2021/01/12 12:17:49;;;;;;;3.05;1.15;;;;;;;;;;4969440;28;20301;-70
2021/01/12 12:20:17;;;;;;;7.55;2.60;;;;;;;2.00;nan;95771.50;4972131;28;20769;-71
2021/01/12 12:22:44;;;;;;;1.88;1.15;;;;;;;;;;4974706;28;20680;-73
2021/01/12 12:25:11;;;;;;;1.02;0.70;;;;;;;2.03;nan;95792.75;4971730;28;20253;-70
2021/01/12 12:27:38;;;;;;;0.80;0.80;;;;;;;2.03;nan;95854.31;4969226;28;20764;-73
2021/01/12 12:30:05;;;;;;;1.23;0.70;;;;;;;;;;4967448;28;20765;-71
2021/01/12 12:32:39;;;;;;;0.90;0.70;;;;;;;;;;4971243;28;20625;-73